Hlavní strana
METAR-TAF:

METAR-TAF

Letiště :

Athény, Řecko

Letiště Atény

zeměpisná šířka: 37-56N, zeměpisná délka: 023-56E, výška: 94 m

Aktuální stav počasí

Zpráva byla vytvořena před 29 minutami, v 21:50 UTC
vítr z různých směrů 1 kt
Teplota 14°C
Vlhkost vzduchu 72%
Tlak 1015 hPa
Viditelnost 10 km a více
Žádná oblačnost pod 1500 m, nevyskytují se cumulonimby.

METAR: LGAV 252150Z VRB01KT CAVOK 14/09 Q1015 NOSIG

Čas: 01:19 (22:19 UTC)

Předpověď počasí

Zpráva byla vytvořena před 5 hodinami a 19 minutami, v 17:00 UTC
Předpověď platná od 25 v 18 UTC do 26 v 18 UTC
vítr z různých směrů 5 kt
Viditelnost 10 km a více
Skoro jasno ve výšce 2000 ft
Změna
od 26 v 06 UTC do 26 v 08 UTC
Severoseverovýchodní vítr 10 kt
Změna
od 26 v 16 UTC do 26 v 18 UTC
vítr z různých směrů 5 kt

TAF: LGAV 251700Z 2518/2618 VRB05KT 9999 FEW020 BECMG 2606/2608 02010KT BECMG 2616/2618 VRB05KT

Stav a předpovědi počasí z více než 4 000 letišť (zprávy METAR a TAF).

Červené a žluté tečky na mapě představují dostupné meteorologické stanice.

Když kurzor umístíte na tečku, zobrazí se název stanice.

Pak kliknutím zobrazíte stav a předpověď počasí.

Chcete-li změnit mapu, kliknutím na zelené tlačítko se znaménkem +mapu přiblížíte, kliknutím na zelené tlačítko se znaménkem – mapu oddálíte a kliknutím na zelené šipky přejdete na sousední mapy.


METAR-TAF: